Aérodrome :







RETROUVEZ-NOUS SUR...

 
LOGIN :

S'inscrire | Disclaimer

   EN    FR    IT 

 









Légende :    VFR   VFR Marginal   IFR   IFR Intensif   IFR Très Intensif
Visi : 
Plafond : 
>= 8 km
>= 3000ft
5 à 8 km
1000 à 3000 ft
1500m à 5 km
500 à 1000 ft
800 à 1500m
200 à 500 ft
< 800m
< 200 ft
Symboles :   Orages  Brouillard  Fortes neiges  Fortes précipitations  Vent > 20 kt







- Altitude de l'aérodrome : 56 ft


KRKD - Knox County Regional

DERNIER METAR :
  • 170556Z AUTO 21003KT 10SM CLR 19/17 A2989 RMK AO2 SLP121 T01890167 10206 20189 58017

METARs EXPIRÉS :
  • 170456Z AUTO 25005KT 10SM CLR 20/17 A2991 RMK AO2 SLP127 T02000172 402610144
  • 170356Z AUTO 23005KT 10SM CLR 19/17 A2992 RMK AO2 SLP133 T01940172

TAF KRKD
Valide du 17 à 06h jusqu'au 18 à 06h UTC


170520Z 1706/1806 21012KT P6SM FEW150
FM170900 22011KT 1SM BR BKN080
FM171100 22011KT P6SM BKN070
FM171500 24011KT P6SM BKN025
FM171800 24009KT 6SM -SHRA BKN025
FM180200 26008KT P6SM BKN045
FIR KZBW / Amérique du Nord



MET'MAP, la Météo Aéronautique d'un coup d'oeil ! - Copyright ORBIFLY Décembre 2007 - Disclaimer

ORBIFLY MET'MAP TEAM :

Programmation & Développement : Alexandra Zaïnal
Conception & Développement : Baudouin d'Aumeries
Co-Programmation & Développement : Marc-Olivier Méhu
Soutien technique & logistique : Manuel Goepfert

Contact : metmap@orbifly.com




SOURCES & CREDITS :

   NOAA